createdAt,value
2022-10-22T00:00:08.243Z,100140.44
2022-10-22T00:02:35.791Z,100138.94
2022-10-22T00:05:02.309Z,100139.94
2022-10-22T00:07:28.826Z,100141.91
2022-10-22T00:09:55.425Z,100131.34
2022-10-22T00:12:22.285Z,100132.97
2022-10-22T00:14:48.829Z,100130.66
2022-10-22T00:17:15.378Z,100134.81
2022-10-22T00:19:41.933Z,100120.00
2022-10-22T00:22:09.979Z,100111.47
2022-10-22T00:24:38.224Z,100114.78
2022-10-22T00:27:06.187Z,100108.97
2022-10-22T00:29:32.821Z,100121.31
2022-10-22T00:31:59.399Z,100120.09
2022-10-22T00:34:26.138Z,100117.78
2022-10-22T00:36:53.290Z,100110.94
2022-10-22T00:39:22.047Z,100107.59
2022-10-22T00:41:50.102Z,100111.16
2022-10-22T00:44:54.302Z,100102.91
2022-10-22T00:47:23.819Z,100101.13
2022-10-22T00:49:51.813Z,100099.00
2022-10-22T00:52:19.961Z,100098.59
2022-10-22T00:54:46.897Z,100101.47
2022-10-22T00:57:13.894Z,100091.47
2022-10-22T00:59:40.543Z,100082.47
2022-10-22T01:02:07.085Z,100090.75
2022-10-22T01:04:33.635Z,100092.59
2022-10-22T01:07:00.209Z,100095.66
2022-10-22T01:09:41.955Z,100091.56
2022-10-22T01:12:30.407Z,100093.28
2022-10-22T01:15:15.560Z,100093.56
2022-10-22T01:17:55.707Z,100103.13
2022-10-22T01:20:41.187Z,100100.66
2022-10-22T01:23:17.224Z,100113.38
2022-10-22T01:25:58.477Z,100116.63
2022-10-22T01:28:57.849Z,100119.13
2022-10-22T01:31:27.620Z,100128.06
2022-10-22T01:33:55.181Z,100118.81
2022-10-22T01:36:22.054Z,100122.63
2022-10-22T01:38:49.839Z,100119.69
2022-10-22T01:41:16.522Z,100120.09
2022-10-22T01:43:43.101Z,100128.56
2022-10-22T01:46:11.525Z,100124.56
2022-10-22T01:48:57.851Z,100114.03
2022-10-22T01:51:30.946Z,100124.97
2022-10-22T01:54:27.296Z,100131.19
2022-10-22T01:57:17.819Z,100124.88
2022-10-22T02:00:07.952Z,100129.22
2022-10-22T02:02:43.525Z,100123.97
2022-10-22T02:05:18.889Z,100131.03
2022-10-22T02:08:01.273Z,100128.34
2022-10-22T02:10:29.583Z,100138.56
2022-10-22T02:12:58.454Z,100134.75
2022-10-22T02:15:27.577Z,100132.59
2022-10-22T02:17:57.114Z,100135.19
2022-10-22T02:20:28.473Z,100136.94
2022-10-22T02:22:56.007Z,100126.41
2022-10-22T02:25:27.570Z,100131.81
2022-10-22T02:28:16.015Z,100131.34
2022-10-22T02:30:47.369Z,100138.13
2022-10-22T02:33:21.030Z,100152.91
2022-10-22T02:35:49.689Z,100151.13
2022-10-22T02:38:16.909Z,100145.63
2022-10-22T02:40:43.632Z,100147.03
2022-10-22T02:43:10.147Z,100147.66
2022-10-22T02:45:36.855Z,100144.13
2022-10-22T02:48:03.968Z,100145.69
2022-10-22T02:50:30.513Z,100145.56
2022-10-22T02:52:56.957Z,100147.56
2022-10-22T02:55:23.480Z,100145.25
2022-10-22T02:57:49.967Z,100140.88
2022-10-22T03:00:16.622Z,100145.31
2022-10-22T03:02:43.059Z,100138.84
2022-10-22T03:05:09.694Z,100129.56
2022-10-22T03:07:36.189Z,100143.41
2022-10-22T03:10:02.845Z,100143.19
2022-10-22T03:12:29.960Z,100147.84
2022-10-22T03:14:56.452Z,100163.03
2022-10-22T03:17:22.956Z,100158.97
2022-10-22T03:19:49.439Z,100163.44
2022-10-22T03:22:23.021Z,100172.63
2022-10-22T03:24:53.731Z,100170.16
2022-10-22T03:27:21.896Z,100177.72
2022-10-22T03:29:50.822Z,100162.88
2022-10-22T03:32:17.319Z,100168.06
2022-10-22T03:34:43.875Z,100179.59
2022-10-22T03:37:10.780Z,100179.13
2022-10-22T03:39:38.154Z,100189.44
2022-10-22T03:42:06.563Z,100187.06
2022-10-22T03:44:33.406Z,100207.78
2022-10-22T03:47:02.514Z,100202.28
2022-10-22T03:49:29.715Z,100202.47
2022-10-22T03:51:56.221Z,100213.94
2022-10-22T03:54:22.692Z,100217.78
2022-10-22T03:56:49.174Z,100217.03
2022-10-22T03:59:16.077Z,100214.63
2022-10-22T04:01:42.569Z,100211.63
2022-10-22T04:04:09.075Z,100216.19
2022-10-22T04:06:35.634Z,100222.56
2022-10-22T04:09:02.264Z,100232.69
2022-10-22T04:11:28.853Z,100229.03
2022-10-22T04:13:55.356Z,100238.97
2022-10-22T04:16:25.039Z,100231.81
2022-10-22T04:18:54.043Z,100237.41
2022-10-22T04:21:20.617Z,100228.53
2022-10-22T04:23:52.859Z,100230.94
2022-10-22T04:26:19.945Z,100230.59
2022-10-22T04:28:48.474Z,100241.75
2022-10-22T04:31:17.941Z,100250.28
2022-10-22T04:33:44.510Z,100263.22
2022-10-22T04:36:16.854Z,100260.84
2022-10-22T04:38:45.519Z,100248.19
2022-10-22T04:41:17.306Z,100238.72
2022-10-22T04:43:44.949Z,100253.81
2022-10-22T04:46:15.076Z,100248.50
2022-10-22T04:48:42.968Z,100245.41
2022-10-22T04:51:12.639Z,100242.66
2022-10-22T04:53:40.524Z,100250.81
2022-10-22T04:56:16.317Z,100252.59
2022-10-22T04:58:43.877Z,100254.13
2022-10-22T05:01:11.451Z,100245.03
2022-10-22T05:03:38.054Z,100252.78
2022-10-22T05:06:04.703Z,100251.56
2022-10-22T05:08:31.302Z,100249.03
2022-10-22T05:10:57.786Z,100243.25
2022-10-22T05:13:24.294Z,100253.00
2022-10-22T05:15:50.994Z,100258.31
2022-10-22T05:18:20.315Z,100256.94
2022-10-22T05:20:49.144Z,100259.91
2022-10-22T05:23:15.729Z,100264.84
2022-10-22T05:25:42.253Z,100264.00
2022-10-22T05:28:08.858Z,100267.06
2022-10-22T05:30:35.510Z,100278.63
2022-10-22T05:33:02.021Z,100278.66
2022-10-22T05:35:28.628Z,100284.66
2022-10-22T05:40:31.234Z,100287.94
2022-10-22T05:42:58.818Z,100287.13
2022-10-22T05:45:25.272Z,100289.88
2022-10-22T05:47:52.274Z,100296.69
2022-10-22T05:50:18.810Z,100286.63
2022-10-22T05:52:45.321Z,100298.16
2022-10-22T05:55:11.858Z,100299.66
2022-10-22T05:57:39.733Z,100305.06
2022-10-22T06:00:06.947Z,100304.75
2022-10-22T06:02:33.659Z,100315.28
2022-10-22T06:05:00.184Z,100314.06
2022-10-22T06:07:26.681Z,100316.97
2022-10-22T06:09:53.760Z,100322.66
2022-10-22T06:12:20.262Z,100325.47
2022-10-22T06:14:46.800Z,100326.69
2022-10-22T06:17:13.494Z,100333.38
2022-10-22T06:19:39.969Z,100329.22
2022-10-22T06:22:06.586Z,100337.09
2022-10-22T06:24:33.226Z,100336.34
2022-10-22T06:26:59.874Z,100342.72
2022-10-22T06:29:26.367Z,100339.25
2022-10-22T06:31:52.831Z,100349.00
2022-10-22T06:34:19.532Z,100351.31
2022-10-22T06:36:46.855Z,100361.91
2022-10-22T06:39:16.627Z,100360.84
2022-10-22T06:41:43.157Z,100366.75
2022-10-22T06:44:15.595Z,100366.72
2022-10-22T06:46:43.575Z,100360.03
2022-10-22T06:49:13.920Z,100375.38
2022-10-22T06:51:40.505Z,100378.97
2022-10-22T06:54:07.209Z,100375.47
2022-10-22T06:56:33.778Z,100379.19
2022-10-22T06:59:00.322Z,100374.94
2022-10-22T07:01:30.794Z,100389.28
2022-10-22T07:03:57.747Z,100384.66
2022-10-22T07:06:25.882Z,100391.44
2022-10-22T07:08:54.006Z,100396.28
2022-10-22T07:11:23.214Z,100414.44
2022-10-22T07:13:49.881Z,100406.81
2022-10-22T07:16:17.713Z,100408.34
2022-10-22T07:18:45.190Z,100411.81
2022-10-22T07:21:13.610Z,100409.66
2022-10-22T07:23:40.351Z,100413.03
2022-10-22T07:26:08.433Z,100412.31
2022-10-22T07:28:37.921Z,100427.31
2022-10-22T07:31:04.817Z,100425.97
2022-10-22T07:33:31.338Z,100429.09
2022-10-22T07:36:02.817Z,100430.50
2022-10-22T07:38:29.745Z,100431.56
2022-10-22T07:40:56.388Z,100446.75
2022-10-22T07:43:23.381Z,100441.66
2022-10-22T07:45:50.226Z,100454.09
2022-10-22T07:48:17.115Z,100454.59
2022-10-22T07:53:11.218Z,100460.91
2022-10-22T07:55:37.874Z,100461.81
2022-10-22T07:58:04.415Z,100467.44
2022-10-22T08:00:31.036Z,100468.25
2022-10-22T08:02:57.543Z,100471.38
2022-10-22T08:05:24.192Z,100469.28
2022-10-22T08:07:50.674Z,100471.97
2022-10-22T08:10:17.450Z,100476.06
2022-10-22T08:12:44.265Z,100473.88
2022-10-22T08:15:11.060Z,100476.94
2022-10-22T08:17:37.745Z,100481.34
2022-10-22T08:20:04.610Z,100483.28
2022-10-22T08:22:31.261Z,100480.47
2022-10-22T08:24:57.866Z,100487.81
2022-10-22T08:27:24.374Z,100482.41
2022-10-22T08:29:50.895Z,100475.06
2022-10-22T08:32:17.571Z,100486.94
2022-10-22T08:34:44.073Z,100479.88
2022-10-22T08:37:14.196Z,100481.09
2022-10-22T08:39:44.569Z,100483.06
2022-10-22T08:42:29.762Z,100496.09
2022-10-22T08:45:13.946Z,100493.78
2022-10-22T08:48:02.428Z,100500.75
2022-10-22T08:50:35.505Z,100501.13
2022-10-22T08:53:06.615Z,100502.56
2022-10-22T08:55:37.349Z,100503.94
2022-10-22T08:58:20.209Z,100508.66
2022-10-22T09:00:50.725Z,100514.66
2022-10-22T09:04:05.420Z,100506.50
2022-10-22T09:06:35.257Z,100515.38
2022-10-22T09:09:05.976Z,100513.94
2022-10-22T09:11:38.594Z,100516.00
2022-10-22T09:14:06.345Z,100515.16
2022-10-22T09:16:35.859Z,100513.38
2022-10-22T09:19:24.366Z,100509.25
2022-10-22T09:22:20.220Z,100516.47
2022-10-22T09:24:49.194Z,100525.22
2022-10-22T09:27:21.522Z,100523.59
2022-10-22T09:29:48.345Z,100522.72
2022-10-22T09:32:16.492Z,100519.38
2022-10-22T09:34:47.947Z,100542.00
2022-10-22T09:37:19.016Z,100536.59
2022-10-22T09:39:50.706Z,100532.44
2022-10-22T09:42:19.110Z,100536.31
2022-10-22T09:44:52.700Z,100540.25
2022-10-22T09:47:43.547Z,100534.03
2022-10-22T09:50:39.226Z,100530.81
2022-10-22T09:53:17.593Z,100549.34
2022-10-22T09:55:49.057Z,100551.56
2022-10-22T09:58:17.462Z,100561.41
2022-10-22T10:00:46.489Z,100551.59
2022-10-22T10:03:24.229Z,100558.09
2022-10-22T10:06:00.168Z,100553.13
2022-10-22T10:08:30.153Z,100561.25
2022-10-22T10:11:02.665Z,100556.31
2022-10-22T10:13:44.179Z,100549.19
2022-10-22T10:16:34.950Z,100547.63
2022-10-22T10:19:20.015Z,100547.84
2022-10-22T10:22:30.309Z,100545.78
2022-10-22T10:25:28.191Z,100550.44
2022-10-22T10:28:00.689Z,100558.84
2022-10-22T10:30:27.308Z,100550.78
2022-10-22T10:33:29.590Z,100556.47
2022-10-22T10:36:16.292Z,100553.31
2022-10-22T10:38:58.238Z,100561.41
2022-10-22T10:41:49.967Z,100560.09
2022-10-22T10:44:40.952Z,100558.72
2022-10-22T10:47:13.725Z,100558.34
2022-10-22T10:49:42.512Z,100558.00
2022-10-22T10:52:22.781Z,100561.03
2022-10-22T10:54:55.287Z,100564.50
2022-10-22T10:57:37.021Z,100559.88
2022-10-22T11:00:11.550Z,100556.59
2022-10-22T11:03:06.628Z,100561.97
2022-10-22T11:05:38.341Z,100549.19
2022-10-22T11:08:14.610Z,100556.75
2022-10-22T11:10:49.565Z,100559.63
2022-10-22T11:13:22.367Z,100562.94
2022-10-22T11:15:55.091Z,100550.66
2022-10-22T11:18:32.238Z,100547.53
2022-10-22T11:21:13.201Z,100539.94
2022-10-22T11:24:08.110Z,100549.47
2022-10-22T11:26:56.920Z,100548.56
2022-10-22T11:29:29.433Z,100542.47
2022-10-22T11:32:01.484Z,100540.03
2022-10-22T11:34:54.332Z,100540.25
2022-10-22T11:37:24.341Z,100536.88
2022-10-22T11:39:53.755Z,100533.34
2022-10-22T11:42:33.131Z,100536.16
2022-10-22T11:45:28.553Z,100535.84
2022-10-22T11:48:09.977Z,100534.53
2022-10-22T11:50:52.848Z,100535.13
2022-10-22T11:53:31.169Z,100537.84
2022-10-22T11:56:22.378Z,100548.97
2022-10-22T11:58:52.308Z,100543.25
2022-10-22T12:01:27.177Z,100544.03
2022-10-22T12:04:05.967Z,100541.91
2022-10-22T12:06:53.126Z,100540.78
2022-10-22T12:09:22.161Z,100542.34
2022-10-22T12:11:50.927Z,100546.19
2022-10-22T12:14:22.880Z,100535.09
2022-10-22T12:17:05.585Z,100535.25
2022-10-22T12:19:37.410Z,100527.53
2022-10-22T12:22:10.028Z,100536.47
2022-10-22T12:24:44.541Z,100531.88
2022-10-22T12:27:22.848Z,100530.53
2022-10-22T12:29:58.430Z,100534.75
2022-10-22T12:32:37.409Z,100525.28
2022-10-22T12:35:14.425Z,100519.59
2022-10-22T12:37:41.343Z,100516.59
2022-10-22T12:40:26.369Z,100519.59
2022-10-22T12:42:55.985Z,100520.03
2022-10-22T12:45:25.557Z,100517.66
2022-10-22T12:47:56.809Z,100520.38
2022-10-22T12:50:31.074Z,100527.72
2022-10-22T12:52:57.641Z,100528.56
2022-10-22T12:55:25.909Z,100527.03
2022-10-22T12:57:53.041Z,100530.00
2022-10-22T13:00:23.180Z,100525.78
2022-10-22T13:02:49.774Z,100519.38
2022-10-22T13:05:19.342Z,100525.06
2022-10-22T13:07:54.271Z,100527.28
2022-10-22T13:10:32.232Z,100530.31
2022-10-22T13:12:59.134Z,100529.41
2022-10-22T13:15:28.324Z,100520.41
2022-10-22T13:18:22.363Z,100517.06
2022-10-22T13:20:58.809Z,100531.13
2022-10-22T13:23:28.071Z,100515.91
2022-10-22T13:25:59.250Z,100520.72
2022-10-22T13:28:26.674Z,100525.38
2022-10-22T13:30:59.146Z,100517.25
2022-10-22T13:33:36.833Z,100526.81
2022-10-22T13:36:03.822Z,100520.72
2022-10-22T13:38:30.937Z,100523.44
2022-10-22T13:40:58.577Z,100517.78
2022-10-22T13:43:25.758Z,100517.13
2022-10-22T13:45:55.438Z,100514.38
2022-10-22T13:48:23.709Z,100513.44
2022-10-22T13:50:51.376Z,100510.66
2022-10-22T13:53:20.533Z,100511.50
2022-10-22T13:55:47.511Z,100510.34
2022-10-22T14:00:57.700Z,100522.50
2022-10-22T14:03:31.473Z,100521.81
2022-10-22T14:05:58.352Z,100525.03
2022-10-22T14:08:26.913Z,100517.59
2022-10-22T14:10:53.764Z,100519.75
2022-10-22T14:13:21.492Z,100515.81
2022-10-22T14:15:50.188Z,100519.00
2022-10-22T14:18:26.259Z,100523.53
2022-10-22T14:20:59.790Z,100525.66
2022-10-22T14:23:31.392Z,100532.75
2022-10-22T14:25:59.251Z,100527.31
2022-10-22T14:28:25.843Z,100536.59
2022-10-22T14:30:53.581Z,100532.38
2022-10-22T14:33:31.404Z,100525.50
2022-10-22T14:36:00.217Z,100536.94
2022-10-22T14:38:26.800Z,100541.75
2022-10-22T14:40:53.519Z,100536.28
2022-10-22T14:43:28.923Z,100538.56
2022-10-22T14:45:55.880Z,100530.59
2022-10-22T14:48:22.743Z,100533.72
2022-10-22T14:50:49.382Z,100530.03
2022-10-22T14:53:16.899Z,100536.94
2022-10-22T14:55:44.673Z,100534.25
2022-10-22T14:58:12.385Z,100529.81
2022-10-22T15:00:42.029Z,100529.94
2022-10-22T15:03:08.912Z,100532.50
2022-10-22T15:05:36.271Z,100536.16
2022-10-22T15:08:02.907Z,100544.72
2022-10-22T15:10:29.450Z,100549.53
2022-10-22T15:12:55.916Z,100534.38
2022-10-22T15:15:23.231Z,100534.59
2022-10-22T15:17:51.204Z,100538.13
2022-10-22T15:20:17.705Z,100535.22
2022-10-22T15:22:45.268Z,100529.69
2022-10-22T15:25:13.554Z,100540.59
2022-10-22T15:27:40.102Z,100539.13
2022-10-22T15:30:07.778Z,100554.19
2022-10-22T15:32:34.328Z,100550.56
2022-10-22T15:35:05.863Z,100555.38
2022-10-22T15:37:32.442Z,100560.56
2022-10-22T15:40:00.434Z,100553.47
2022-10-22T15:42:26.946Z,100558.75
2022-10-22T15:45:00.034Z,100564.84
2022-10-22T15:47:29.312Z,100556.34
2022-10-22T15:49:55.803Z,100560.41
2022-10-22T15:52:22.566Z,100559.66
2022-10-22T15:54:49.062Z,100555.78
2022-10-22T15:57:15.673Z,100561.75
2022-10-22T15:59:42.212Z,100563.59
2022-10-22T16:02:10.788Z,100556.16
2022-10-22T16:04:38.294Z,100560.00
2022-10-22T16:07:04.788Z,100561.47
2022-10-22T16:09:31.315Z,100560.03
2022-10-22T16:11:57.950Z,100558.72
2022-10-22T16:14:24.661Z,100565.00
2022-10-22T16:16:54.163Z,100562.56
2022-10-22T16:19:22.519Z,100555.91
2022-10-22T16:21:54.797Z,100555.59
2022-10-22T16:24:22.277Z,100567.41
2022-10-22T16:26:49.580Z,100569.44
2022-10-22T16:29:16.246Z,100566.25
2022-10-22T16:31:43.986Z,100569.81
2022-10-22T16:34:10.813Z,100575.00
2022-10-22T16:36:38.192Z,100576.38
2022-10-22T16:39:05.943Z,100577.47
2022-10-22T16:41:35.346Z,100579.28
2022-10-22T16:44:05.488Z,100576.28
2022-10-22T16:46:33.279Z,100576.84
2022-10-22T16:48:59.890Z,100574.94
2022-10-22T16:51:27.997Z,100569.41
2022-10-22T16:53:56.364Z,100581.47
2022-10-22T16:56:23.779Z,100581.25
2022-10-22T16:58:53.231Z,100581.38
2022-10-22T17:01:21.731Z,100582.47
2022-10-22T17:03:48.302Z,100578.97
2022-10-22T17:06:15.320Z,100584.06
2022-10-22T17:08:42.463Z,100586.09
2022-10-22T17:11:11.711Z,100589.56
2022-10-22T17:13:40.563Z,100602.06
2022-10-22T17:16:10.060Z,100603.13
2022-10-22T17:18:38.365Z,100605.78
2022-10-22T17:21:06.266Z,100613.13
2022-10-22T17:23:32.765Z,100610.63
2022-10-22T17:26:01.791Z,100612.81
2022-10-22T17:28:29.388Z,100613.88
2022-10-22T17:31:22.402Z,100618.34
2022-10-22T17:33:51.505Z,100622.09
2022-10-22T17:36:19.247Z,100621.44
2022-10-22T17:38:49.112Z,100621.81
2022-10-22T17:41:18.777Z,100622.63
2022-10-22T17:46:22.835Z,100620.91
2022-10-22T17:48:52.770Z,100626.50
2022-10-22T17:51:19.870Z,100630.53
2022-10-22T17:53:46.878Z,100629.66
2022-10-22T17:56:16.100Z,100631.66
2022-10-22T17:58:42.669Z,100632.41
2022-10-22T18:01:18.000Z,100632.84
2022-10-22T18:03:44.877Z,100640.13
2022-10-22T18:06:11.684Z,100650.00
2022-10-22T18:08:38.220Z,100642.41
2022-10-22T18:11:13.889Z,100639.75
2022-10-22T18:13:40.388Z,100639.75
2022-10-22T18:16:06.985Z,100638.22
2022-10-22T18:18:34.602Z,100634.44
2022-10-22T18:21:01.866Z,100641.69
2022-10-22T18:23:28.422Z,100636.34
2022-10-22T18:25:55.267Z,100638.25
2022-10-22T18:28:21.888Z,100635.94
2022-10-22T18:30:48.721Z,100639.00
2022-10-22T18:33:18.276Z,100641.28
2022-10-22T18:35:46.291Z,100642.84
2022-10-22T18:38:13.092Z,100648.97
2022-10-22T18:40:46.661Z,100640.88
2022-10-22T18:43:13.291Z,100641.66
2022-10-22T18:45:47.646Z,100630.94
2022-10-22T18:48:16.689Z,100631.38
2022-10-22T18:50:43.318Z,100633.25
2022-10-22T18:53:12.241Z,100628.28
2022-10-22T18:55:39.697Z,100628.25
2022-10-22T18:58:06.611Z,100627.44
2022-10-22T19:00:35.352Z,100631.28
2022-10-22T19:03:03.146Z,100634.41
2022-10-22T19:05:29.902Z,100640.44
2022-10-22T19:07:56.410Z,100631.25
2022-10-22T19:10:23.119Z,100635.53
2022-10-22T19:12:49.658Z,100624.38
2022-10-22T19:15:16.416Z,100622.91
2022-10-22T19:17:43.257Z,100627.44
2022-10-22T19:20:10.384Z,100628.63
2022-10-22T19:22:36.883Z,100625.97
2022-10-22T19:25:05.985Z,100629.75
2022-10-22T19:27:36.328Z,100625.09
2022-10-22T19:30:04.634Z,100647.41
2022-10-22T19:32:31.329Z,100642.03
2022-10-22T19:34:58.068Z,100621.28
2022-10-22T19:37:24.747Z,100634.94
2022-10-22T19:39:52.313Z,100631.22
2022-10-22T19:42:20.715Z,100633.19
2022-10-22T19:44:47.323Z,100640.00
2022-10-22T19:47:15.310Z,100645.28
2022-10-22T19:49:42.628Z,100648.72
2022-10-22T19:52:09.335Z,100648.72
2022-10-22T19:54:40.626Z,100648.69
2022-10-22T19:57:08.431Z,100652.44
2022-10-22T19:59:35.904Z,100649.03
2022-10-22T20:02:02.524Z,100641.44
2022-10-22T20:04:29.975Z,100642.16
2022-10-22T20:06:57.028Z,100636.19
2022-10-22T20:09:23.965Z,100647.59
2022-10-22T20:11:50.958Z,100641.84
2022-10-22T20:14:17.698Z,100636.44
2022-10-22T20:16:44.291Z,100642.47
2022-10-22T20:19:13.397Z,100647.75
2022-10-22T20:21:40.792Z,100646.25
2022-10-22T20:24:07.823Z,100645.09
2022-10-22T20:26:34.695Z,100639.28
2022-10-22T20:29:01.729Z,100642.34
2022-10-22T20:31:29.758Z,100641.41
2022-10-22T20:34:01.096Z,100656.41
2022-10-22T20:36:29.544Z,100657.06
2022-10-22T20:39:02.212Z,100652.91
2022-10-22T20:41:29.739Z,100655.03
2022-10-22T20:43:56.998Z,100655.44
2022-10-22T20:46:26.696Z,100663.06
2022-10-22T20:48:56.617Z,100659.84
2022-10-22T20:51:23.391Z,100663.28
2022-10-22T20:53:50.316Z,100660.63
2022-10-22T20:56:18.023Z,100660.66
2022-10-22T20:58:48.942Z,100660.50
2022-10-22T21:01:24.262Z,100648.53
2022-10-22T21:03:52.002Z,100647.25
2022-10-22T21:06:23.037Z,100642.03
2022-10-22T21:08:51.530Z,100636.88
2022-10-22T21:11:18.954Z,100637.00
2022-10-22T21:13:45.838Z,100636.31
2022-10-22T21:16:14.674Z,100642.41
2022-10-22T21:18:41.948Z,100640.47
2022-10-22T21:21:09.762Z,100646.19
2022-10-22T21:23:37.271Z,100648.19
2022-10-22T21:26:04.614Z,100645.13
2022-10-22T21:28:37.097Z,100640.94
2022-10-22T21:31:05.689Z,100633.22
2022-10-22T21:33:36.099Z,100635.44
2022-10-22T21:36:02.771Z,100642.41
2022-10-22T21:38:29.594Z,100642.28
2022-10-22T21:40:56.147Z,100635.09
2022-10-22T21:43:22.685Z,100627.78
2022-10-22T21:45:49.307Z,100634.63
2022-10-22T21:48:16.507Z,100635.38
2022-10-22T21:50:44.246Z,100643.03
2022-10-22T21:53:12.112Z,100643.81
2022-10-22T21:55:41.957Z,100636.47
2022-10-22T21:58:09.030Z,100637.56
2022-10-22T22:00:35.891Z,100634.06
2022-10-22T22:03:03.450Z,100636.81
2022-10-22T22:05:30.063Z,100649.03
2022-10-22T22:07:56.721Z,100643.50
2022-10-22T22:10:25.238Z,100642.03
2022-10-22T22:12:52.455Z,100649.66
2022-10-22T22:15:20.403Z,100651.75
2022-10-22T22:17:47.173Z,100656.72
2022-10-22T22:20:14.007Z,100653.16
2022-10-22T22:22:40.889Z,100648.69
2022-10-22T22:25:07.997Z,100645.38
2022-10-22T22:27:34.644Z,100652.66
2022-10-22T22:30:02.525Z,100654.47
2022-10-22T22:32:29.585Z,100658.50
2022-10-22T22:34:56.532Z,100660.06
2022-10-22T22:37:23.439Z,100648.25
2022-10-22T22:39:50.616Z,100648.59
2022-10-22T22:42:17.194Z,100654.38
2022-10-22T22:44:44.025Z,100652.94
2022-10-22T22:47:10.757Z,100643.38
2022-10-22T22:49:37.379Z,100641.41
2022-10-22T22:52:04.649Z,100639.06
2022-10-22T22:54:31.509Z,100642.47
2022-10-22T22:56:58.700Z,100633.59
2022-10-22T22:59:25.252Z,100626.31
2022-10-22T23:01:52.253Z,100626.63
2022-10-22T23:04:23.684Z,100620.13
2022-10-22T23:06:51.415Z,100615.75
2022-10-22T23:11:52.046Z,100623.47
2022-10-22T23:14:19.975Z,100619.41
2022-10-22T23:16:50.115Z,100616.47
2022-10-22T23:19:20.618Z,100613.84
2022-10-22T23:21:49.903Z,100614.94
2022-10-22T23:24:20.502Z,100602.47
2022-10-22T23:26:49.788Z,100603.28
2022-10-22T23:29:28.125Z,100606.59
2022-10-22T23:31:56.169Z,100607.28
2022-10-22T23:34:25.709Z,100608.09
2022-10-22T23:36:52.758Z,100600.91
2022-10-22T23:39:23.579Z,100598.19
2022-10-22T23:41:51.592Z,100604.22
2022-10-22T23:44:18.185Z,100598.50
2022-10-22T23:46:45.022Z,100602.41
2022-10-22T23:49:12.653Z,100587.59
2022-10-22T23:51:40.174Z,100595.56
2022-10-22T23:54:15.245Z,100597.72
2022-10-22T23:56:42.071Z,100600.72
2022-10-22T23:59:09.272Z,100599.56
